createdAt,value
2023-06-04T00:01:16.285Z,100463.19
2023-06-04T00:03:44.550Z,100466.47
2023-06-04T00:06:11.210Z,100467.50
2023-06-04T00:08:37.857Z,100461.38
2023-06-04T00:11:04.573Z,100460.75
2023-06-04T00:13:56.495Z,100457.28
2023-06-04T00:16:23.063Z,100462.56
2023-06-04T00:18:49.741Z,100458.50
2023-06-04T00:21:16.555Z,100455.50
2023-06-04T00:23:43.850Z,100445.72
2023-06-04T00:26:10.677Z,100457.41
2023-06-04T00:28:37.247Z,100457.94
2023-06-04T00:31:07.105Z,100466.91
2023-06-04T00:33:33.839Z,100454.66
2023-06-04T00:36:00.639Z,100448.44
2023-06-04T00:38:28.237Z,100448.44
2023-06-04T00:40:54.758Z,100446.94
2023-06-04T00:43:21.446Z,100450.75
2023-06-04T00:45:48.054Z,100444.63
2023-06-04T00:48:14.637Z,100454.31
2023-06-04T00:50:41.179Z,100445.84
2023-06-04T00:53:08.222Z,100443.03
2023-06-04T00:55:35.389Z,100452.16
2023-06-04T00:58:02.224Z,100455.00
2023-06-04T01:00:28.809Z,100454.13
2023-06-04T01:02:59.734Z,100461.28
2023-06-04T01:05:48.991Z,100473.91
2023-06-04T01:08:16.358Z,100472.34
2023-06-04T01:10:53.509Z,100478.22
2023-06-04T01:13:20.070Z,100474.22
2023-06-04T01:15:46.658Z,100475.13
2023-06-04T01:18:28.789Z,100476.25
2023-06-04T01:21:19.407Z,100477.69
2023-06-04T01:23:59.560Z,100470.97
2023-06-04T01:26:28.488Z,100476.84
2023-06-04T01:28:57.427Z,100476.34
2023-06-04T01:31:25.518Z,100481.69
2023-06-04T01:33:59.892Z,100481.53
2023-06-04T01:36:26.713Z,100495.72
2023-06-04T01:38:53.414Z,100493.09
2023-06-04T01:41:20.030Z,100487.25
2023-06-04T01:43:46.903Z,100488.50
2023-06-04T01:46:13.837Z,100486.88
2023-06-04T01:48:41.857Z,100500.06
2023-06-04T01:51:08.680Z,100484.78
2023-06-04T01:53:36.033Z,100492.25
2023-06-04T01:56:02.872Z,100494.69
2023-06-04T01:58:30.257Z,100493.38
2023-06-04T02:01:17.997Z,100499.47
2023-06-04T02:04:04.906Z,100494.75
2023-06-04T02:06:51.764Z,100489.22
2023-06-04T02:09:38.594Z,100496.19
2023-06-04T02:12:25.280Z,100498.84
2023-06-04T02:15:12.036Z,100496.88
2023-06-04T02:17:43.836Z,100506.97
2023-06-04T02:20:12.326Z,100510.16
2023-06-04T02:22:39.091Z,100506.22
2023-06-04T02:25:06.521Z,100512.59
2023-06-04T02:27:33.049Z,100507.47
2023-06-04T02:29:59.732Z,100509.34
2023-06-04T02:32:26.317Z,100512.00
2023-06-04T02:34:53.012Z,100509.88
2023-06-04T02:37:19.726Z,100519.94
2023-06-04T02:39:46.337Z,100520.63
2023-06-04T02:42:13.435Z,100518.00
2023-06-04T02:44:40.075Z,100524.53
2023-06-04T02:47:07.208Z,100519.25
2023-06-04T02:49:33.814Z,100521.03
2023-06-04T02:52:00.470Z,100520.78
2023-06-04T02:54:27.334Z,100517.75
2023-06-04T02:56:54.516Z,100529.19
2023-06-04T02:59:21.111Z,100517.44
2023-06-04T03:01:49.487Z,100522.63
2023-06-04T03:04:16.727Z,100521.91
2023-06-04T03:06:47.265Z,100518.50
2023-06-04T03:09:14.318Z,100518.16
2023-06-04T03:11:40.883Z,100522.59
2023-06-04T03:14:08.837Z,100526.00
2023-06-04T03:16:35.304Z,100510.66
2023-06-04T03:19:02.456Z,100523.34
2023-06-04T03:21:30.115Z,100523.69
2023-06-04T03:23:57.594Z,100523.19
2023-06-04T03:26:24.286Z,100519.72
2023-06-04T03:28:51.317Z,100520.81
2023-06-04T03:31:20.158Z,100522.94
2023-06-04T03:33:46.968Z,100528.09
2023-06-04T03:36:14.505Z,100523.78
2023-06-04T03:38:41.110Z,100526.50
2023-06-04T03:41:08.704Z,100531.56
2023-06-04T03:43:36.655Z,100529.78
2023-06-04T03:46:06.441Z,100524.97
2023-06-04T03:48:33.121Z,100525.66
2023-06-04T03:50:59.810Z,100527.34
2023-06-04T03:53:26.797Z,100530.50
2023-06-04T03:55:53.572Z,100537.03
2023-06-04T03:58:22.488Z,100535.91
2023-06-04T04:00:50.852Z,100529.81
2023-06-04T04:03:17.402Z,100535.34
2023-06-04T04:05:45.135Z,100537.97
2023-06-04T04:08:13.077Z,100537.28
2023-06-04T04:10:39.878Z,100543.13
2023-06-04T04:13:06.503Z,100539.06
2023-06-04T04:15:36.556Z,100535.72
2023-06-04T04:18:04.901Z,100540.69
2023-06-04T04:20:32.718Z,100540.50
2023-06-04T04:23:04.278Z,100541.84
2023-06-04T04:25:33.633Z,100542.84
2023-06-04T04:28:03.216Z,100545.94
2023-06-04T04:30:30.345Z,100546.34
2023-06-04T04:32:57.605Z,100551.59
2023-06-04T04:35:33.568Z,100552.03
2023-06-04T04:38:00.165Z,100552.13
2023-06-04T04:40:26.861Z,100558.72
2023-06-04T04:42:55.481Z,100562.09
2023-06-04T04:45:22.379Z,100555.69
2023-06-04T04:47:53.114Z,100559.66
2023-06-04T04:50:20.507Z,100562.81
2023-06-04T04:52:47.064Z,100555.94
2023-06-04T04:55:14.038Z,100562.59
2023-06-04T04:57:41.265Z,100560.00
2023-06-04T05:00:10.296Z,100558.22
2023-06-04T05:02:39.245Z,100559.00
2023-06-04T05:05:07.698Z,100554.75
2023-06-04T05:07:34.344Z,100560.31
2023-06-04T05:10:01.303Z,100562.81
2023-06-04T05:12:33.105Z,100569.66
2023-06-04T05:15:01.955Z,100568.06
2023-06-04T05:17:31.274Z,100571.88
2023-06-04T05:20:05.427Z,100576.38
2023-06-04T05:22:37.273Z,100578.06
2023-06-04T05:25:04.834Z,100576.81
2023-06-04T05:27:32.629Z,100576.72
2023-06-04T05:29:59.681Z,100579.78
2023-06-04T05:32:29.536Z,100586.31
2023-06-04T05:34:58.576Z,100585.81
2023-06-04T05:37:28.279Z,100586.41
2023-06-04T05:39:56.668Z,100584.03
2023-06-04T05:42:24.871Z,100582.97
2023-06-04T05:44:51.591Z,100581.09
2023-06-04T05:47:19.910Z,100583.00
2023-06-04T05:49:47.032Z,100588.28
2023-06-04T05:52:13.895Z,100591.41
2023-06-04T05:54:42.118Z,100592.50
2023-06-04T05:57:08.820Z,100599.63
2023-06-04T05:59:35.708Z,100602.72
2023-06-04T06:02:04.879Z,100597.53
2023-06-04T06:04:32.090Z,100599.16
2023-06-04T06:06:58.986Z,100608.81
2023-06-04T06:09:25.614Z,100606.69
2023-06-04T06:11:52.465Z,100599.53
2023-06-04T06:14:19.086Z,100599.31
2023-06-04T06:16:46.318Z,100603.22
2023-06-04T06:19:13.476Z,100606.53
2023-06-04T06:21:40.150Z,100615.78
2023-06-04T06:24:06.908Z,100613.09
2023-06-04T06:26:34.297Z,100612.66
2023-06-04T06:29:02.647Z,100617.06
2023-06-04T06:31:30.380Z,100616.41
2023-06-04T06:33:56.895Z,100618.94
2023-06-04T06:36:23.518Z,100622.44
2023-06-04T06:38:50.105Z,100620.75
2023-06-04T06:41:16.712Z,100619.38
2023-06-04T06:43:43.295Z,100612.19
2023-06-04T06:46:09.761Z,100614.47
2023-06-04T06:48:37.162Z,100617.47
2023-06-04T06:51:03.865Z,100623.97
2023-06-04T06:53:30.523Z,100627.38
2023-06-04T06:55:57.335Z,100630.22
2023-06-04T06:58:24.427Z,100621.84
2023-06-04T07:00:51.344Z,100629.13
2023-06-04T07:03:18.188Z,100630.53
2023-06-04T07:05:44.896Z,100623.66
2023-06-04T07:08:11.453Z,100621.19
2023-06-04T07:10:38.110Z,100625.75
2023-06-04T07:13:04.789Z,100627.34
2023-06-04T07:15:31.355Z,100625.53
2023-06-04T07:17:58.141Z,100624.78
2023-06-04T07:20:24.740Z,100617.38
2023-06-04T07:22:51.381Z,100620.91
2023-06-04T07:25:17.932Z,100624.50
2023-06-04T07:27:44.561Z,100623.94
2023-06-04T07:30:11.275Z,100627.34
2023-06-04T07:32:37.820Z,100619.41
2023-06-04T07:35:04.701Z,100615.09
2023-06-04T07:37:31.561Z,100623.47
2023-06-04T07:39:58.385Z,100608.84
2023-06-04T07:42:24.994Z,100608.31
2023-06-04T07:44:51.640Z,100606.94
2023-06-04T07:47:18.182Z,100605.63
2023-06-04T07:49:58.105Z,100611.78
2023-06-04T07:52:28.260Z,100608.06
2023-06-04T07:54:54.864Z,100609.34
2023-06-04T07:57:21.376Z,100609.06
2023-06-04T07:59:47.981Z,100601.50
2023-06-04T08:02:16.045Z,100598.53
2023-06-04T08:04:42.823Z,100603.38
2023-06-04T08:07:09.599Z,100601.91
2023-06-04T08:09:36.194Z,100595.38
2023-06-04T08:12:02.920Z,100590.31
2023-06-04T08:14:29.481Z,100595.50
2023-06-04T08:16:56.034Z,100593.13
2023-06-04T08:19:22.676Z,100591.59
2023-06-04T08:21:49.370Z,100584.91
2023-06-04T08:24:16.392Z,100587.31
2023-06-04T08:26:42.870Z,100588.47
2023-06-04T08:29:09.730Z,100585.59
2023-06-04T08:31:36.382Z,100591.31
2023-06-04T08:34:06.337Z,100594.38
2023-06-04T08:36:33.820Z,100588.44
2023-06-04T08:39:00.421Z,100591.56
2023-06-04T08:41:38.167Z,100594.91
2023-06-04T08:44:07.278Z,100598.28
2023-06-04T08:46:34.081Z,100605.44
2023-06-04T08:49:03.540Z,100602.94
2023-06-04T08:51:34.815Z,100597.34
2023-06-04T08:54:01.485Z,100599.72
2023-06-04T08:56:29.823Z,100605.16
2023-06-04T08:59:02.723Z,100605.28
2023-06-04T09:01:30.814Z,100613.13
2023-06-04T09:03:59.269Z,100608.28
2023-06-04T09:06:29.336Z,100604.03
2023-06-04T09:08:59.798Z,100611.19
2023-06-04T09:11:29.188Z,100614.63
2023-06-04T09:14:00.544Z,100612.94
2023-06-04T09:16:27.113Z,100608.81
2023-06-04T09:18:54.464Z,100605.41
2023-06-04T09:21:21.143Z,100609.50
2023-06-04T09:23:48.446Z,100607.84
2023-06-04T09:26:15.321Z,100605.81
2023-06-04T09:28:43.104Z,100606.25
2023-06-04T09:31:19.142Z,100602.34
2023-06-04T09:33:46.851Z,100601.81
2023-06-04T09:36:13.827Z,100601.28
2023-06-04T09:38:40.837Z,100597.19
2023-06-04T09:41:14.930Z,100606.53
2023-06-04T09:43:41.817Z,100598.16
2023-06-04T09:46:16.177Z,100595.41
2023-06-04T09:48:45.387Z,100600.50
2023-06-04T09:51:16.266Z,100603.56
2023-06-04T09:53:43.063Z,100603.72
2023-06-04T09:56:12.042Z,100598.66
2023-06-04T09:58:39.699Z,100608.84
2023-06-04T10:01:07.383Z,100604.72
2023-06-04T10:03:36.972Z,100609.47
2023-06-04T10:06:05.530Z,100609.31
2023-06-04T10:08:33.787Z,100603.06
2023-06-04T10:11:02.601Z,100599.44
2023-06-04T10:13:39.874Z,100599.44
2023-06-04T10:16:09.572Z,100602.25
2023-06-04T10:18:40.624Z,100601.13
2023-06-04T10:21:09.154Z,100603.28
2023-06-04T10:23:36.859Z,100595.22
2023-06-04T10:26:03.539Z,100598.22
2023-06-04T10:28:30.619Z,100599.06
2023-06-04T10:30:57.235Z,100605.53
2023-06-04T10:33:27.420Z,100597.22
2023-06-04T10:35:54.733Z,100608.56
2023-06-04T10:38:23.280Z,100604.56
2023-06-04T10:40:50.495Z,100613.34
2023-06-04T10:43:17.276Z,100611.59
2023-06-04T10:45:44.254Z,100600.59
2023-06-04T10:48:13.057Z,100593.28
2023-06-04T10:50:53.706Z,100598.44
2023-06-04T10:53:21.182Z,100597.59
2023-06-04T10:55:49.582Z,100596.59
2023-06-04T10:58:17.026Z,100592.69
2023-06-04T11:00:50.260Z,100585.28
2023-06-04T11:03:18.079Z,100584.47
2023-06-04T11:05:48.708Z,100591.38
2023-06-04T11:08:16.045Z,100592.72
2023-06-04T11:10:46.388Z,100594.56
2023-06-04T11:13:13.639Z,100593.38
2023-06-04T11:15:49.835Z,100594.81
2023-06-04T11:18:21.152Z,100590.22
2023-06-04T11:20:50.967Z,100593.94
2023-06-04T11:23:18.587Z,100587.03
2023-06-04T11:25:46.361Z,100587.22
2023-06-04T11:28:19.177Z,100582.84
2023-06-04T11:31:03.263Z,100582.38
2023-06-04T11:33:31.099Z,100581.66
2023-06-04T11:35:57.740Z,100590.22
2023-06-04T11:38:24.352Z,100591.56
2023-06-04T11:41:01.610Z,100581.63
2023-06-04T11:43:29.759Z,100581.72
2023-06-04T11:45:56.573Z,100578.75
2023-06-04T11:48:23.770Z,100571.56
2023-06-04T11:50:50.753Z,100577.72
2023-06-04T11:53:17.677Z,100575.78
2023-06-04T11:55:44.450Z,100575.28
2023-06-04T11:58:11.459Z,100568.69
2023-06-04T12:00:39.157Z,100574.50
2023-06-04T12:03:07.588Z,100572.06
2023-06-04T12:05:34.748Z,100566.75
2023-06-04T12:08:10.496Z,100570.75
2023-06-04T12:10:44.896Z,100571.25
2023-06-04T12:13:12.111Z,100568.28
2023-06-04T12:15:38.985Z,100561.47
2023-06-04T12:18:06.257Z,100568.22
2023-06-04T12:20:38.356Z,100565.91
2023-06-04T12:23:07.230Z,100562.28
2023-06-04T12:25:35.242Z,100553.09
2023-06-04T12:28:04.113Z,100563.78
2023-06-04T12:30:39.085Z,100564.00
2023-06-04T12:33:05.946Z,100552.53
2023-06-04T12:35:34.276Z,100561.38
2023-06-04T12:38:04.367Z,100556.38
2023-06-04T12:40:31.605Z,100548.38
2023-06-04T12:42:58.319Z,100551.16
2023-06-04T12:45:25.061Z,100553.19
2023-06-04T12:47:51.574Z,100552.56
2023-06-04T12:50:22.166Z,100548.91
2023-06-04T12:52:49.241Z,100555.00
2023-06-04T12:55:16.123Z,100546.13
2023-06-04T12:57:45.233Z,100548.28
2023-06-04T13:00:12.223Z,100540.50
2023-06-04T13:02:38.968Z,100544.28
2023-06-04T13:05:05.675Z,100529.94
2023-06-04T13:07:32.298Z,100537.38
2023-06-04T13:09:58.756Z,100535.16
2023-06-04T13:12:25.579Z,100537.41
2023-06-04T13:14:52.134Z,100539.19
2023-06-04T13:17:22.488Z,100541.97
2023-06-04T13:19:50.800Z,100534.50
2023-06-04T13:22:17.609Z,100540.41
2023-06-04T13:24:44.099Z,100539.16
2023-06-04T13:27:10.767Z,100537.00
2023-06-04T13:29:37.432Z,100541.50
2023-06-04T13:32:04.805Z,100527.13
2023-06-04T13:34:33.245Z,100517.50
2023-06-04T13:37:00.156Z,100531.28
2023-06-04T13:39:26.873Z,100531.63
2023-06-04T13:41:53.614Z,100514.41
2023-06-04T13:44:26.936Z,100522.88
2023-06-04T13:46:54.308Z,100520.47
2023-06-04T13:49:21.620Z,100518.97
2023-06-04T13:51:48.357Z,100521.78
2023-06-04T13:54:14.822Z,100523.72
2023-06-04T13:56:41.739Z,100525.78
2023-06-04T13:59:08.246Z,100520.38
2023-06-04T14:01:34.945Z,100504.84
2023-06-04T14:04:01.842Z,100512.34
2023-06-04T14:06:28.502Z,100493.50
2023-06-04T14:08:55.249Z,100507.06
2023-06-04T14:11:21.780Z,100503.44
2023-06-04T14:13:48.651Z,100498.47
2023-06-04T14:16:15.849Z,100502.28
2023-06-04T14:18:42.604Z,100497.09
2023-06-04T14:21:09.642Z,100498.78
2023-06-04T14:23:36.429Z,100502.09
2023-06-04T14:26:03.191Z,100493.72
2023-06-04T14:28:29.725Z,100487.59
2023-06-04T14:30:56.652Z,100502.88
2023-06-04T14:33:23.105Z,100486.06
2023-06-04T14:35:49.839Z,100484.75
2023-06-04T14:38:17.472Z,100481.91
2023-06-04T14:40:47.066Z,100481.41
2023-06-04T14:43:13.997Z,100483.91
2023-06-04T14:45:41.860Z,100486.69
2023-06-04T14:48:15.309Z,100490.34
2023-06-04T14:50:44.291Z,100483.41
2023-06-04T14:53:12.674Z,100477.22
2023-06-04T14:55:40.366Z,100474.88
2023-06-04T14:58:07.060Z,100486.22
2023-06-04T15:00:34.099Z,100483.91
2023-06-04T15:03:04.400Z,100482.75
2023-06-04T15:05:34.787Z,100473.91
2023-06-04T15:08:04.531Z,100468.72
2023-06-04T15:10:31.627Z,100468.47
2023-06-04T15:12:58.179Z,100471.97
2023-06-04T15:15:24.967Z,100472.59
2023-06-04T15:17:51.705Z,100461.56
2023-06-04T15:20:18.875Z,100475.59
2023-06-04T15:22:45.513Z,100466.34
2023-06-04T15:25:12.051Z,100458.03
2023-06-04T15:27:39.524Z,100470.25
2023-06-04T15:30:07.448Z,100469.16
2023-06-04T15:32:35.120Z,100461.00
2023-06-04T15:35:02.635Z,100466.53
2023-06-04T15:37:29.179Z,100464.97
2023-06-04T15:39:58.752Z,100461.72
2023-06-04T15:42:25.705Z,100454.69
2023-06-04T15:44:52.307Z,100449.72
2023-06-04T15:47:18.914Z,100468.47
2023-06-04T15:49:45.597Z,100460.31
2023-06-04T15:52:12.563Z,100463.97
2023-06-04T15:54:46.353Z,100455.13
2023-06-04T15:57:14.295Z,100444.75
2023-06-04T15:59:41.940Z,100457.69
2023-06-04T16:02:08.871Z,100450.19
2023-06-04T16:04:35.740Z,100445.28
2023-06-04T16:07:03.070Z,100451.59
2023-06-04T16:09:30.008Z,100446.75
2023-06-04T16:11:56.813Z,100443.03
2023-06-04T16:14:23.818Z,100447.88
2023-06-04T16:16:50.458Z,100444.50
2023-06-04T16:19:17.297Z,100436.84
2023-06-04T16:21:43.915Z,100434.94
2023-06-04T16:24:10.454Z,100436.78
2023-06-04T16:26:37.174Z,100440.25
2023-06-04T16:29:03.674Z,100434.97
2023-06-04T16:31:30.506Z,100447.53
2023-06-04T16:33:57.073Z,100449.53
2023-06-04T16:36:23.846Z,100444.03
2023-06-04T16:38:50.674Z,100451.69
2023-06-04T16:41:17.148Z,100435.50
2023-06-04T16:43:43.964Z,100438.06
2023-06-04T16:46:10.505Z,100442.97
2023-06-04T16:48:39.419Z,100444.81
2023-06-04T16:51:06.428Z,100446.09
2023-06-04T16:53:33.202Z,100450.38
2023-06-04T16:55:59.966Z,100432.72
2023-06-04T16:58:26.504Z,100437.66
2023-06-04T17:00:53.315Z,100446.50
2023-06-04T17:03:20.303Z,100436.97
2023-06-04T17:05:47.409Z,100432.09
2023-06-04T17:08:14.020Z,100443.72
2023-06-04T17:10:40.900Z,100437.13
2023-06-04T17:13:07.462Z,100436.47
2023-06-04T17:15:34.322Z,100433.28
2023-06-04T17:18:07.431Z,100433.38
2023-06-04T17:20:34.112Z,100438.75
2023-06-04T17:23:01.743Z,100435.66
2023-06-04T17:25:29.435Z,100435.84
2023-06-04T17:27:56.385Z,100444.53
2023-06-04T17:30:25.868Z,100449.31
2023-06-04T17:32:52.810Z,100450.63
2023-06-04T17:35:19.413Z,100442.25
2023-06-04T17:37:46.124Z,100443.69
2023-06-04T17:40:13.165Z,100446.09
2023-06-04T17:42:41.908Z,100454.59
2023-06-04T17:45:10.992Z,100447.59
2023-06-04T17:47:37.746Z,100446.09
2023-06-04T17:50:07.769Z,100450.16
2023-06-04T17:52:35.242Z,100444.47
2023-06-04T17:55:02.127Z,100450.34
2023-06-04T17:57:30.077Z,100446.81
2023-06-04T17:59:57.288Z,100445.63
2023-06-04T18:02:23.961Z,100444.94
2023-06-04T18:04:53.818Z,100455.69
2023-06-04T18:07:21.364Z,100452.09
2023-06-04T18:09:48.397Z,100461.41
2023-06-04T18:12:15.487Z,100458.22
2023-06-04T18:14:43.551Z,100459.91
2023-06-04T18:17:10.797Z,100456.22
2023-06-04T18:19:37.484Z,100462.59
2023-06-04T18:22:04.584Z,100458.94
2023-06-04T18:24:31.037Z,100460.78
2023-06-04T18:26:59.878Z,100458.28
2023-06-04T18:29:26.870Z,100469.50
2023-06-04T18:31:53.600Z,100461.97
2023-06-04T18:34:23.048Z,100470.00
2023-06-04T18:36:57.194Z,100467.00
2023-06-04T18:39:24.973Z,100473.25
2023-06-04T18:41:56.283Z,100470.59
2023-06-04T18:44:23.801Z,100471.28
2023-06-04T18:46:51.185Z,100467.22
2023-06-04T18:49:18.586Z,100474.56
2023-06-04T18:51:45.623Z,100478.59
2023-06-04T18:54:12.162Z,100473.22
2023-06-04T18:56:39.989Z,100476.59
2023-06-04T18:59:06.710Z,100468.81
2023-06-04T19:01:33.337Z,100474.25
2023-06-04T19:04:00.184Z,100475.06
2023-06-04T19:06:27.562Z,100467.38
2023-06-04T19:08:54.115Z,100477.78
2023-06-04T19:11:22.845Z,100475.03
2023-06-04T19:13:49.540Z,100475.88
2023-06-04T19:16:16.400Z,100477.69
2023-06-04T19:18:43.005Z,100478.63
2023-06-04T19:21:09.670Z,100483.25
2023-06-04T19:23:36.924Z,100482.84
2023-06-04T19:26:03.906Z,100485.75
2023-06-04T19:28:30.498Z,100489.19
2023-06-04T19:30:57.175Z,100484.06
2023-06-04T19:33:24.026Z,100496.13
2023-06-04T19:35:51.572Z,100503.16
2023-06-04T19:38:18.496Z,100511.28
2023-06-04T19:40:46.000Z,100514.34
2023-06-04T19:43:12.483Z,100514.53
2023-06-04T19:45:38.964Z,100518.31
2023-06-04T19:48:05.735Z,100520.31
2023-06-04T19:50:32.402Z,100521.81
2023-06-04T19:52:58.962Z,100519.06
2023-06-04T19:55:25.574Z,100519.34
2023-06-04T19:57:52.192Z,100522.72
2023-06-04T20:00:18.742Z,100530.75
2023-06-04T20:02:45.491Z,100532.66
2023-06-04T20:05:12.187Z,100525.50
2023-06-04T20:07:38.713Z,100532.91
2023-06-04T20:10:06.307Z,100537.88
2023-06-04T20:12:32.884Z,100539.78
2023-06-04T20:14:59.389Z,100538.19
2023-06-04T20:17:26.313Z,100532.00
2023-06-04T20:19:54.783Z,100530.72
2023-06-04T20:22:21.676Z,100535.25
2023-06-04T20:24:48.288Z,100530.78
2023-06-04T20:27:18.019Z,100536.50
2023-06-04T20:29:45.290Z,100536.31
2023-06-04T20:32:11.821Z,100541.25
2023-06-04T20:34:38.552Z,100536.38
2023-06-04T20:37:05.207Z,100534.22
2023-06-04T20:39:32.249Z,100542.91
2023-06-04T20:41:58.898Z,100548.47
2023-06-04T20:44:25.586Z,100560.03
2023-06-04T20:46:52.346Z,100549.44
2023-06-04T20:49:19.038Z,100553.28
2023-06-04T20:51:45.772Z,100554.38
2023-06-04T20:54:12.311Z,100554.25
2023-06-04T20:56:38.784Z,100553.63
2023-06-04T20:59:05.708Z,100554.63
2023-06-04T21:01:32.295Z,100550.59
2023-06-04T21:04:01.350Z,100552.81
2023-06-04T21:06:28.233Z,100553.03
2023-06-04T21:08:54.761Z,100550.81
2023-06-04T21:11:21.289Z,100559.47
2023-06-04T21:13:47.937Z,100553.19
2023-06-04T21:16:14.457Z,100558.56
2023-06-04T21:18:40.971Z,100555.34
2023-06-04T21:21:07.898Z,100557.16
2023-06-04T21:23:34.960Z,100552.19
2023-06-04T21:26:01.488Z,100558.56
2023-06-04T21:28:28.105Z,100551.69
2023-06-04T21:30:55.003Z,100561.53
2023-06-04T21:33:21.551Z,100565.25
2023-06-04T21:35:48.326Z,100562.72
2023-06-04T21:38:14.792Z,100557.97
2023-06-04T21:40:41.392Z,100556.69
2023-06-04T21:43:07.860Z,100567.72
2023-06-04T21:45:34.921Z,100565.34
2023-06-04T21:48:01.966Z,100565.97
2023-06-04T21:50:28.588Z,100559.94
2023-06-04T21:52:55.664Z,100567.53
2023-06-04T21:55:22.415Z,100562.59
2023-06-04T21:57:48.952Z,100564.72
2023-06-04T22:00:16.677Z,100568.56
2023-06-04T22:02:43.722Z,100566.03
2023-06-04T22:05:10.452Z,100567.41
2023-06-04T22:07:37.025Z,100568.25
2023-06-04T22:10:04.113Z,100564.47
2023-06-04T22:12:30.835Z,100557.69
2023-06-04T22:14:57.384Z,100562.19
2023-06-04T22:17:23.930Z,100560.09
2023-06-04T22:19:51.577Z,100564.88
2023-06-04T22:22:18.188Z,100565.06
2023-06-04T22:24:44.794Z,100561.13
2023-06-04T22:27:11.508Z,100556.81
2023-06-04T22:29:38.032Z,100555.34
2023-06-04T22:32:04.722Z,100552.41
2023-06-04T22:34:31.492Z,100548.47
2023-06-04T22:36:58.002Z,100548.38
2023-06-04T22:39:24.543Z,100550.63
2023-06-04T22:41:51.092Z,100547.97
2023-06-04T22:44:17.822Z,100547.97
2023-06-04T22:46:44.488Z,100547.88
2023-06-04T22:49:12.145Z,100548.19
2023-06-04T22:51:39.642Z,100543.09
2023-06-04T22:54:06.261Z,100535.94
2023-06-04T22:56:32.789Z,100543.97
2023-06-04T22:58:59.302Z,100538.56
2023-06-04T23:01:26.480Z,100544.19
2023-06-04T23:03:53.468Z,100535.22
2023-06-04T23:06:20.091Z,100547.69
2023-06-04T23:08:46.710Z,100548.63
2023-06-04T23:11:13.335Z,100544.53
2023-06-04T23:13:39.824Z,100546.53
2023-06-04T23:16:06.620Z,100546.22
2023-06-04T23:18:33.660Z,100547.16
2023-06-04T23:21:00.532Z,100543.03
2023-06-04T23:23:27.333Z,100539.75
2023-06-04T23:25:54.007Z,100528.66
2023-06-04T23:28:20.667Z,100533.09
2023-06-04T23:30:47.319Z,100538.91
2023-06-04T23:33:13.970Z,100540.81
2023-06-04T23:35:40.656Z,100543.03
2023-06-04T23:38:07.222Z,100541.13
2023-06-04T23:40:33.962Z,100535.66
2023-06-04T23:43:00.572Z,100528.44
2023-06-04T23:45:27.435Z,100529.53
2023-06-04T23:47:53.938Z,100533.09
2023-06-04T23:50:20.480Z,100526.63
2023-06-04T23:52:47.088Z,100521.91
2023-06-04T23:55:13.594Z,100524.53
2023-06-04T23:57:40.644Z,100527.09
